Spirit Falls, Wisconsin
Current Conditions -  °F | °C
As of 1:35 AM on Thursday 23 Oct 2014 (Local Time) from KTKV Reporting Station
Broken Clouds Broken Clouds  
Wind Chill: 41°   Ceiling: 8500
Heat Index: 41°   Visibility: 10mi
Dew Point: 36°   Wind: 0mph
Humidity: 82%   Direction: NA
Pressure: 30.14"   Gusts: NA
Location:  45.6083°N, 89.9711°W
Report Text: KTKV 230635Z AUTO 00000KT 10SM SCT034 BKN085 05/02 A3014 RMK AO2 T00510023
Loading
Personal Weather Stations






























Interactive Weather Map
Tropical Storm Tracking
New forecast layout! Learn more

10-Day Weather Forecast

Advertisements
Track Severe Weather on mobile